createdAt,value
2022-07-28T00:00:16.603Z,10.38
2022-07-28T00:02:45.674Z,10.39
2022-07-28T00:05:13.365Z,10.42
2022-07-28T00:07:42.050Z,10.40
2022-07-28T00:10:10.903Z,10.64
2022-07-28T00:12:39.111Z,10.91
2022-07-28T00:15:08.310Z,10.87
2022-07-28T00:17:35.935Z,10.62
2022-07-28T00:20:06.363Z,10.52
2022-07-28T00:22:34.079Z,10.56
2022-07-28T00:25:01.679Z,10.52
2022-07-28T00:27:29.803Z,10.59
2022-07-28T00:29:57.377Z,10.76
2022-07-28T00:32:24.943Z,10.91
2022-07-28T00:34:52.889Z,11.00
2022-07-28T00:37:22.710Z,11.05
2022-07-28T00:39:50.794Z,11.12
2022-07-28T00:42:19.268Z,11.13
2022-07-28T00:44:47.160Z,11.01
2022-07-28T00:47:14.924Z,11.05
2022-07-28T00:49:42.557Z,11.03
2022-07-28T00:52:11.044Z,11.05
2022-07-28T00:54:40.211Z,11.02
2022-07-28T00:57:07.941Z,10.99
2022-07-28T00:59:35.714Z,11.06
2022-07-28T01:02:03.470Z,11.00
2022-07-28T01:04:31.334Z,10.78
2022-07-28T01:07:18.756Z,10.72
2022-07-28T01:09:54.231Z,10.63
2022-07-28T01:12:31.049Z,10.66
2022-07-28T01:15:04.633Z,10.74
2022-07-28T01:17:39.210Z,10.74
2022-07-28T01:20:11.081Z,10.77
2022-07-28T01:22:41.703Z,10.66
2022-07-28T01:25:19.452Z,10.55
2022-07-28T01:27:54.286Z,10.47
2022-07-28T01:30:32.520Z,10.44
2022-07-28T01:33:02.626Z,10.44
2022-07-28T01:35:32.688Z,10.52
2022-07-28T01:38:03.005Z,10.41
2022-07-28T01:40:33.387Z,10.40
2022-07-28T01:43:04.217Z,10.37
2022-07-28T01:45:34.267Z,10.38
2022-07-28T01:48:04.038Z,10.35
2022-07-28T01:50:32.377Z,10.43
2022-07-28T01:53:00.193Z,10.56
2022-07-28T01:55:27.944Z,10.58
2022-07-28T01:57:56.712Z,10.53
2022-07-28T02:00:25.635Z,10.52
2022-07-28T02:02:57.812Z,10.59
2022-07-28T02:05:27.330Z,10.53
2022-07-28T02:07:57.119Z,10.44
2022-07-28T02:10:24.914Z,10.50
2022-07-28T02:12:53.776Z,10.49
2022-07-28T02:15:22.261Z,10.55
2022-07-28T02:17:50.859Z,10.52
2022-07-28T02:20:21.051Z,10.39
2022-07-28T02:22:52.091Z,10.42
2022-07-28T02:25:20.414Z,10.45
2022-07-28T02:27:50.352Z,10.40
2022-07-28T02:30:20.247Z,10.26
2022-07-28T02:32:50.606Z,10.01
2022-07-28T02:35:25.934Z,9.83
2022-07-28T02:38:02.152Z,9.78
2022-07-28T02:40:35.812Z,9.67
2022-07-28T02:43:04.385Z,9.53
2022-07-28T02:45:32.953Z,9.52
2022-07-28T02:48:04.640Z,9.48
2022-07-28T02:50:33.623Z,9.43
2022-07-28T02:53:14.891Z,9.38
2022-07-28T02:55:43.902Z,9.77
2022-07-28T02:58:12.656Z,9.84
2022-07-28T03:00:41.345Z,9.61
2022-07-28T03:03:09.608Z,9.87
2022-07-28T03:05:41.061Z,9.83
2022-07-28T03:08:08.781Z,9.86
2022-07-28T03:10:36.410Z,9.78
2022-07-28T03:13:05.283Z,9.65
2022-07-28T03:15:32.997Z,9.56
2022-07-28T03:18:00.764Z,9.44
2022-07-28T03:20:28.480Z,9.35
2022-07-28T03:22:58.275Z,9.42
2022-07-28T03:25:29.805Z,9.51
2022-07-28T03:27:59.047Z,9.52
2022-07-28T03:30:30.346Z,9.68
2022-07-28T03:33:00.012Z,9.67
2022-07-28T03:35:28.025Z,9.53
2022-07-28T03:37:59.285Z,9.56
2022-07-28T03:40:29.523Z,9.42
2022-07-28T03:42:58.536Z,9.48
2022-07-28T03:45:26.302Z,9.31
2022-07-28T03:47:55.003Z,9.33
2022-07-28T03:50:24.073Z,9.16
2022-07-28T03:52:51.924Z,9.15
2022-07-28T03:55:20.971Z,9.08
2022-07-28T03:57:48.768Z,9.14
2022-07-28T04:00:17.326Z,8.96
2022-07-28T04:02:45.167Z,8.85
2022-07-28T04:05:13.344Z,8.76
2022-07-28T04:07:41.909Z,8.81
2022-07-28T04:10:11.276Z,8.89
2022-07-28T04:12:50.712Z,8.91
2022-07-28T04:15:19.185Z,8.88
2022-07-28T04:17:48.559Z,8.99
2022-07-28T04:20:17.266Z,8.97
2022-07-28T04:22:45.088Z,8.97
2022-07-28T04:25:13.865Z,9.07
2022-07-28T04:27:41.614Z,9.06
2022-07-28T04:30:13.333Z,9.06
2022-07-28T04:32:41.152Z,9.08
2022-07-28T04:35:14.032Z,9.10
2022-07-28T04:37:44.756Z,9.16
2022-07-28T04:40:13.506Z,9.28
2022-07-28T04:42:41.817Z,9.38
2022-07-28T04:45:12.671Z,9.39
2022-07-28T04:47:40.770Z,9.38
2022-07-28T04:50:10.057Z,9.48
2022-07-28T04:52:38.231Z,9.66
2022-07-28T04:55:07.315Z,9.80
2022-07-28T04:57:35.484Z,10.01
2022-07-28T05:00:12.205Z,10.21
2022-07-28T05:02:43.363Z,10.33
2022-07-28T05:05:11.798Z,10.47
2022-07-28T05:07:40.111Z,10.73
2022-07-28T05:10:09.873Z,10.89
2022-07-28T05:12:37.601Z,11.28
2022-07-28T05:15:05.372Z,11.53
2022-07-28T05:17:32.945Z,11.90
2022-07-28T05:20:02.537Z,12.49
2022-07-28T05:22:42.400Z,14.78
2022-07-28T05:25:17.547Z,17.07
2022-07-28T05:27:45.792Z,17.90
2022-07-28T05:30:14.522Z,20.11
2022-07-28T05:32:42.357Z,21.09
2022-07-28T05:35:11.765Z,22.20
2022-07-28T05:37:39.533Z,24.03
2022-07-28T05:40:13.655Z,23.73
2022-07-28T05:42:41.939Z,24.12
2022-07-28T05:45:15.046Z,25.70
2022-07-28T05:47:46.362Z,25.56
2022-07-28T05:50:16.026Z,23.59
2022-07-28T05:52:44.097Z,20.25
2022-07-28T05:55:12.098Z,18.89
2022-07-28T05:57:40.248Z,18.72
2022-07-28T06:00:09.712Z,19.25
2022-07-28T06:02:38.233Z,21.84
2022-07-28T06:05:07.133Z,23.59
2022-07-28T06:07:43.277Z,25.48
2022-07-28T06:10:12.361Z,26.11
2022-07-28T06:12:41.423Z,24.60
2022-07-28T06:15:12.906Z,24.72
2022-07-28T06:17:40.458Z,24.93
2022-07-28T06:20:09.586Z,21.98
2022-07-28T06:22:45.601Z,22.70
2022-07-28T06:25:15.044Z,23.73
2022-07-28T06:27:42.654Z,23.13
2022-07-28T06:30:11.089Z,24.33
2022-07-28T06:32:38.808Z,24.40
2022-07-28T06:35:07.559Z,23.61
2022-07-28T06:37:35.193Z,22.87
2022-07-28T06:40:04.774Z,22.50
2022-07-28T06:42:32.391Z,20.67
2022-07-28T06:45:00.271Z,21.41
2022-07-28T06:47:28.097Z,19.69
2022-07-28T06:49:55.757Z,19.50
2022-07-28T06:52:23.421Z,19.79
2022-07-28T06:54:52.265Z,19.47
2022-07-28T06:57:22.939Z,19.38
2022-07-28T07:00:01.243Z,19.02
2022-07-28T07:02:28.815Z,18.84
2022-07-28T07:04:56.425Z,17.53
2022-07-28T07:07:25.050Z,18.95
2022-07-28T07:09:52.704Z,18.20
2022-07-28T07:12:22.175Z,16.67
2022-07-28T07:14:49.777Z,16.71
2022-07-28T07:17:17.450Z,16.54
2022-07-28T07:19:45.117Z,16.53
2022-07-28T07:22:14.582Z,16.28
2022-07-28T07:24:42.240Z,16.60
2022-07-28T07:27:09.895Z,16.58
2022-07-28T07:29:38.938Z,16.78
2022-07-28T07:32:10.553Z,16.79
2022-07-28T07:34:39.355Z,16.27
2022-07-28T07:37:07.558Z,16.55
2022-07-28T07:39:35.157Z,16.64
2022-07-28T07:42:02.763Z,16.11
2022-07-28T07:44:30.720Z,16.24
2022-07-28T07:46:59.664Z,16.20
2022-07-28T07:49:44.964Z,16.30
2022-07-28T07:52:14.066Z,16.25
2022-07-28T07:54:41.729Z,16.51
2022-07-28T07:57:09.691Z,16.68
2022-07-28T07:59:37.362Z,16.56
2022-07-28T08:02:06.992Z,16.59
2022-07-28T08:04:37.085Z,17.08
2022-07-28T08:07:05.696Z,16.95
2022-07-28T08:09:33.844Z,17.40
2022-07-28T08:12:01.463Z,17.37
2022-07-28T08:14:29.090Z,17.94
2022-07-28T08:16:59.099Z,18.39
2022-07-28T08:19:28.096Z,18.49
2022-07-28T08:21:56.351Z,18.12
2022-07-28T08:24:32.929Z,17.97
2022-07-28T08:27:02.158Z,17.53
2022-07-28T08:29:29.803Z,17.64
2022-07-28T08:31:57.626Z,17.91
2022-07-28T08:34:29.889Z,17.79
2022-07-28T08:37:04.236Z,17.32
2022-07-28T08:39:32.264Z,17.77
2022-07-28T08:42:03.175Z,18.12
2022-07-28T08:44:37.649Z,18.03
2022-07-28T08:47:05.441Z,18.32
2022-07-28T08:49:33.803Z,18.79
2022-07-28T08:52:11.208Z,18.86
2022-07-28T08:54:42.631Z,18.53
2022-07-28T08:57:11.545Z,18.46
2022-07-28T08:59:39.873Z,18.22
2022-07-28T09:02:11.125Z,18.18
2022-07-28T09:04:39.822Z,17.42
2022-07-28T09:07:09.345Z,17.57
2022-07-28T09:09:37.023Z,17.55
2022-07-28T09:12:05.713Z,17.86
2022-07-28T09:14:33.526Z,17.81
2022-07-28T09:17:01.885Z,18.00
2022-07-28T09:19:34.090Z,17.96
2022-07-28T09:22:03.522Z,18.29
2022-07-28T09:24:37.112Z,18.22
2022-07-28T09:27:07.709Z,18.17
2022-07-28T09:29:36.055Z,18.38
2022-07-28T09:32:04.190Z,18.64
2022-07-28T09:34:40.511Z,18.79
2022-07-28T09:37:09.044Z,18.76
2022-07-28T09:39:38.243Z,18.87
2022-07-28T09:42:06.260Z,18.91
2022-07-28T09:44:33.861Z,18.22
2022-07-28T09:47:01.603Z,18.93
2022-07-28T09:49:43.468Z,18.89
2022-07-28T09:52:12.160Z,18.63
2022-07-28T09:55:00.600Z,18.22
2022-07-28T09:57:28.533Z,17.95
2022-07-28T09:59:58.603Z,18.35
2022-07-28T10:02:28.020Z,18.86
2022-07-28T10:04:59.627Z,18.68
2022-07-28T10:07:29.186Z,18.75
2022-07-28T10:09:59.874Z,18.25
2022-07-28T10:12:28.667Z,18.14
2022-07-28T10:14:57.408Z,18.77
2022-07-28T10:17:27.077Z,18.60
2022-07-28T10:19:57.595Z,18.68
2022-07-28T10:22:27.744Z,18.66
2022-07-28T10:24:57.483Z,18.59
2022-07-28T10:27:26.727Z,18.85
2022-07-28T10:29:58.379Z,18.59
2022-07-28T10:32:26.551Z,18.73
2022-07-28T10:35:01.284Z,18.85
2022-07-28T10:37:29.010Z,19.37
2022-07-28T10:40:05.275Z,19.65
2022-07-28T10:42:37.822Z,19.83
2022-07-28T10:45:06.291Z,19.65
2022-07-28T10:47:35.829Z,20.09
2022-07-28T10:50:04.906Z,20.13
2022-07-28T10:52:51.291Z,20.20
2022-07-28T10:55:31.860Z,20.82
2022-07-28T11:00:12.792Z,20.15
2022-07-28T11:02:48.871Z,20.58
2022-07-28T11:05:35.336Z,20.45
2022-07-28T11:08:05.757Z,20.43
2022-07-28T11:10:47.793Z,20.10
2022-07-28T11:13:32.784Z,20.75
2022-07-28T11:16:21.757Z,20.85
2022-07-28T11:19:07.717Z,20.49
2022-07-28T11:21:39.608Z,20.02
2022-07-28T11:24:08.916Z,20.03
2022-07-28T11:26:45.944Z,20.08
2022-07-28T11:29:20.473Z,20.60
2022-07-28T11:31:59.449Z,20.86
2022-07-28T11:34:27.332Z,20.80
2022-07-28T11:37:02.524Z,21.07
2022-07-28T11:39:31.475Z,20.81
2022-07-28T11:42:26.035Z,20.40
2022-07-28T11:44:53.813Z,20.07
2022-07-28T11:47:24.238Z,19.99
2022-07-28T11:50:13.953Z,20.11
2022-07-28T11:52:53.739Z,20.23
2022-07-28T11:55:21.650Z,20.47
2022-07-28T11:58:09.196Z,20.63
2022-07-28T12:00:36.988Z,20.20
2022-07-28T12:03:06.185Z,20.40
2022-07-28T12:05:34.548Z,20.16
2022-07-28T12:08:09.485Z,20.07
2022-07-28T12:10:55.321Z,20.03
2022-07-28T12:13:28.666Z,20.25
2022-07-28T12:15:56.307Z,20.01
2022-07-28T12:18:25.483Z,19.63
2022-07-28T12:20:54.402Z,19.77
2022-07-28T12:23:38.929Z,20.11
2022-07-28T12:26:14.205Z,20.12
2022-07-28T12:28:50.340Z,20.40
2022-07-28T12:31:18.075Z,20.69
2022-07-28T12:33:47.056Z,20.49
2022-07-28T12:36:18.657Z,20.79
2022-07-28T12:38:46.780Z,20.95
2022-07-28T12:41:15.853Z,20.91
2022-07-28T12:43:50.649Z,21.14
2022-07-28T12:46:21.389Z,21.14
2022-07-28T12:48:50.781Z,21.11
2022-07-28T12:51:31.520Z,21.00
2022-07-28T12:53:59.081Z,20.89
2022-07-28T12:56:26.736Z,21.06
2022-07-28T12:59:05.610Z,21.22
2022-07-28T13:01:47.147Z,20.87
2022-07-28T13:04:16.763Z,20.43
2022-07-28T13:06:44.812Z,20.92
2022-07-28T13:09:23.356Z,20.62
2022-07-28T13:11:51.024Z,20.76
2022-07-28T13:14:18.938Z,20.88
2022-07-28T13:16:58.269Z,20.91
2022-07-28T13:19:27.185Z,21.01
2022-07-28T13:22:01.726Z,20.86
2022-07-28T13:24:32.332Z,20.73
2022-07-28T13:27:00.652Z,20.73
2022-07-28T13:29:28.380Z,21.02
2022-07-28T13:31:56.177Z,20.85
2022-07-28T13:34:23.959Z,20.59
2022-07-28T13:36:53.270Z,20.75
2022-07-28T13:39:20.883Z,20.57
2022-07-28T13:41:56.920Z,20.77
2022-07-28T13:44:25.776Z,20.72
2022-07-28T13:46:53.437Z,21.12
2022-07-28T13:49:23.481Z,21.52
2022-07-28T13:51:51.549Z,21.63
2022-07-28T13:54:21.011Z,21.41
2022-07-28T13:56:49.445Z,21.43
2022-07-28T13:59:17.310Z,21.54
2022-07-28T14:01:49.756Z,21.77
2022-07-28T14:04:18.557Z,21.57
2022-07-28T14:06:48.935Z,21.76
2022-07-28T14:09:17.852Z,21.99
2022-07-28T14:11:50.146Z,21.87
2022-07-28T14:14:21.229Z,21.98
2022-07-28T14:16:52.680Z,21.84
2022-07-28T14:19:23.452Z,21.84
2022-07-28T14:22:12.185Z,21.37
2022-07-28T14:24:41.141Z,21.61
2022-07-28T14:27:10.870Z,22.11
2022-07-28T14:29:38.624Z,21.97
2022-07-28T14:32:06.726Z,22.16
2022-07-28T14:34:34.644Z,21.78
2022-07-28T14:37:03.459Z,21.55
2022-07-28T14:39:36.039Z,21.42
2022-07-28T14:42:04.151Z,21.13
2022-07-28T14:44:33.124Z,21.27
2022-07-28T14:47:00.823Z,21.32
2022-07-28T14:49:28.675Z,21.35
2022-07-28T14:51:57.779Z,21.57
2022-07-28T14:54:25.571Z,21.24
2022-07-28T14:56:53.173Z,21.30
2022-07-28T14:59:20.777Z,21.42
2022-07-28T15:01:50.105Z,21.21
2022-07-28T15:04:18.542Z,21.23
2022-07-28T15:06:47.200Z,21.37
2022-07-28T15:09:15.257Z,21.33
2022-07-28T15:11:44.628Z,21.81
2022-07-28T15:14:12.426Z,22.10
2022-07-28T15:16:42.696Z,21.89
2022-07-28T15:19:12.162Z,22.06
2022-07-28T15:21:40.724Z,21.89
2022-07-28T15:24:09.680Z,21.65
2022-07-28T15:26:37.263Z,21.40
2022-07-28T15:29:05.233Z,21.12
2022-07-28T15:31:32.945Z,21.08
2022-07-28T15:34:00.872Z,21.27
2022-07-28T15:36:30.221Z,21.82
2022-07-28T15:38:57.817Z,21.59
2022-07-28T15:41:25.468Z,21.56
2022-07-28T15:43:53.079Z,21.91
2022-07-28T15:46:20.920Z,21.87
2022-07-28T15:48:48.615Z,21.43
2022-07-28T15:51:16.236Z,21.63
2022-07-28T15:53:46.616Z,21.44
2022-07-28T15:56:14.959Z,21.54
2022-07-28T15:58:42.633Z,21.73
2022-07-28T16:01:10.239Z,21.50
2022-07-28T16:03:37.804Z,21.42
2022-07-28T16:06:05.789Z,21.45
2022-07-28T16:08:33.408Z,21.44
2022-07-28T16:11:02.475Z,21.38
2022-07-28T16:13:36.409Z,21.47
2022-07-28T16:16:07.059Z,21.53
2022-07-28T16:18:35.077Z,21.30
2022-07-28T16:21:02.693Z,21.34
2022-07-28T16:23:30.350Z,21.49
2022-07-28T16:25:57.975Z,21.62
2022-07-28T16:28:27.429Z,21.77
2022-07-28T16:30:55.375Z,22.06
2022-07-28T16:33:23.139Z,21.98
2022-07-28T16:35:50.782Z,21.60
2022-07-28T16:38:20.116Z,21.80
2022-07-28T16:40:47.756Z,21.80
2022-07-28T16:43:15.379Z,21.96
2022-07-28T16:45:44.695Z,21.60
2022-07-28T16:48:13.124Z,21.76
2022-07-28T16:50:46.010Z,21.57
2022-07-28T16:53:14.037Z,21.71
2022-07-28T16:55:42.527Z,21.58
2022-07-28T16:58:10.155Z,21.60
2022-07-28T17:00:38.065Z,21.82
2022-07-28T17:03:07.421Z,21.78
2022-07-28T17:05:38.696Z,21.44
2022-07-28T17:08:06.361Z,21.52
2022-07-28T17:10:33.981Z,21.79
2022-07-28T17:13:01.579Z,21.39
2022-07-28T17:15:29.188Z,21.22
2022-07-28T17:17:56.861Z,21.30
2022-07-28T17:20:26.138Z,21.05
2022-07-28T17:22:53.729Z,21.18
2022-07-28T17:25:52.331Z,21.17
2022-07-28T17:28:09.036Z,21.07
2022-07-28T17:30:36.887Z,20.80
2022-07-28T17:33:08.610Z,20.75
2022-07-28T17:35:38.519Z,20.67
2022-07-28T17:38:09.115Z,20.81
2022-07-28T17:40:37.753Z,20.77
2022-07-28T17:43:05.801Z,20.61
2022-07-28T17:45:33.414Z,20.54
2022-07-28T17:48:01.019Z,20.69
2022-07-28T17:50:28.844Z,20.55
2022-07-28T17:52:57.825Z,20.46
2022-07-28T17:56:00.039Z,20.30
2022-07-28T17:58:29.015Z,20.33
2022-07-28T18:00:58.770Z,20.46
2022-07-28T18:04:00.036Z,20.51
2022-07-28T18:06:25.440Z,20.39
2022-07-28T18:08:54.412Z,20.16
2022-07-28T18:11:22.056Z,20.13
2022-07-28T18:14:04.137Z,20.14
2022-07-28T18:16:33.072Z,20.02
2022-07-28T18:19:00.702Z,19.96
2022-07-28T18:21:28.335Z,19.92
2022-07-28T18:23:57.294Z,19.82
2022-07-28T18:26:24.921Z,19.79
2022-07-28T18:28:52.536Z,19.69
2022-07-28T18:31:21.609Z,19.63
2022-07-28T18:33:49.368Z,19.59
2022-07-28T18:36:16.990Z,19.53
2022-07-28T18:38:44.577Z,19.51
2022-07-28T18:41:13.502Z,19.40
2022-07-28T18:43:41.718Z,19.33
2022-07-28T18:46:09.381Z,19.25
2022-07-28T18:48:37.997Z,19.21
2022-07-28T18:51:05.670Z,19.17
2022-07-28T18:53:33.226Z,19.08
2022-07-28T18:56:00.824Z,18.93
2022-07-28T18:58:29.774Z,18.82
2022-07-28T19:00:57.378Z,18.80
2022-07-28T19:03:25.004Z,18.69
2022-07-28T19:05:53.659Z,18.60
2022-07-28T19:08:21.611Z,18.54
2022-07-28T19:10:49.309Z,18.41
2022-07-28T19:13:16.947Z,18.26
2022-07-28T19:15:45.962Z,18.19
2022-07-28T19:18:13.670Z,18.16
2022-07-28T19:20:41.523Z,18.10
2022-07-28T19:23:09.121Z,18.07
2022-07-28T19:25:37.603Z,18.03
2022-07-28T19:28:05.879Z,17.98
2022-07-28T19:30:33.590Z,17.88
2022-07-28T19:33:02.626Z,17.84
2022-07-28T19:35:30.288Z,17.81
2022-07-28T19:37:59.836Z,17.78
2022-07-28T19:40:29.582Z,17.67
2022-07-28T19:42:57.433Z,17.62
2022-07-28T19:45:25.669Z,17.57
2022-07-28T19:47:54.502Z,17.53
2022-07-28T19:50:23.851Z,17.50
2022-07-28T19:52:51.512Z,17.46
2022-07-28T19:55:19.705Z,17.41
2022-07-28T19:57:47.337Z,17.43
2022-07-28T20:00:17.200Z,17.37
2022-07-28T20:02:45.737Z,17.33
2022-07-28T20:05:13.649Z,17.29
2022-07-28T20:07:43.193Z,17.28
2022-07-28T20:10:10.942Z,17.23
2022-07-28T20:12:38.555Z,17.21
2022-07-28T20:15:06.838Z,17.19
2022-07-28T20:17:39.544Z,17.13
2022-07-28T20:20:08.783Z,17.10
2022-07-28T20:22:37.352Z,16.99
2022-07-28T20:25:09.371Z,16.96
2022-07-28T20:27:40.031Z,16.91
2022-07-28T20:30:09.570Z,16.87
2022-07-28T20:32:37.836Z,16.85
2022-07-28T20:35:06.039Z,16.83
2022-07-28T20:37:36.504Z,16.77
2022-07-28T20:40:08.013Z,16.71
2022-07-28T20:42:35.952Z,16.64
2022-07-28T20:45:04.412Z,16.61
2022-07-28T20:47:32.707Z,16.55
2022-07-28T20:50:00.360Z,16.56
2022-07-28T20:52:27.937Z,16.49
2022-07-28T20:54:55.986Z,16.47
2022-07-28T20:57:24.986Z,16.42
2022-07-28T20:59:52.560Z,16.44
2022-07-28T21:02:20.555Z,16.33
2022-07-28T21:04:50.422Z,16.24
2022-07-28T21:08:00.801Z,16.20
2022-07-28T21:10:07.417Z,16.14
2022-07-28T21:12:37.052Z,16.11
2022-07-28T21:15:04.991Z,16.07
2022-07-28T21:17:32.601Z,15.99
2022-07-28T21:20:00.269Z,15.92
2022-07-28T21:22:27.867Z,15.92
2022-07-28T21:24:55.970Z,15.83
2022-07-28T21:27:24.186Z,15.78
2022-07-28T21:32:21.794Z,15.68
2022-07-28T21:34:49.426Z,15.65
2022-07-28T21:37:17.012Z,15.59
2022-07-28T21:39:44.572Z,15.60
2022-07-28T21:42:12.155Z,15.55
2022-07-28T21:44:39.793Z,15.55
2022-07-28T21:47:08.770Z,15.50
2022-07-28T21:49:36.382Z,15.49
2022-07-28T21:52:04.051Z,15.42
2022-07-28T21:54:31.732Z,15.36
2022-07-28T21:56:59.356Z,15.35
2022-07-28T21:59:27.100Z,15.32
2022-07-28T22:01:55.208Z,15.28
2022-07-28T22:04:24.299Z,15.22
2022-07-28T22:06:53.412Z,15.19
2022-07-28T22:09:21.108Z,15.19
2022-07-28T22:11:48.728Z,15.17
2022-07-28T22:14:16.935Z,15.16
2022-07-28T22:16:44.850Z,15.15
2022-07-28T22:19:12.778Z,15.13
2022-07-28T22:21:41.752Z,15.12
2022-07-28T22:24:09.802Z,15.08
2022-07-28T22:26:37.458Z,15.05
2022-07-28T22:29:05.072Z,14.99
2022-07-28T22:31:32.739Z,14.96
2022-07-28T22:34:00.327Z,14.96
2022-07-28T22:36:27.920Z,14.92
2022-07-28T22:38:56.901Z,14.91
2022-07-28T22:41:24.581Z,14.88
2022-07-28T22:43:52.261Z,14.86
2022-07-28T22:46:19.886Z,14.83
2022-07-28T22:48:47.581Z,14.81
2022-07-28T22:51:16.089Z,14.76
2022-07-28T22:53:43.643Z,14.71
2022-07-28T22:56:24.681Z,14.66
2022-07-28T22:58:52.418Z,14.65
2022-07-28T23:01:20.180Z,14.66
2022-07-28T23:03:48.062Z,14.63
2022-07-28T23:06:15.838Z,14.57
2022-07-28T23:08:43.492Z,14.56
2022-07-28T23:11:12.519Z,14.54
2022-07-28T23:13:40.898Z,14.56
2022-07-28T23:16:09.161Z,14.54
2022-07-28T23:18:36.945Z,14.55
2022-07-28T23:21:05.328Z,14.56
2022-07-28T23:23:33.051Z,14.53
2022-07-28T23:26:00.797Z,14.53
2022-07-28T23:28:30.016Z,14.53
2022-07-28T23:30:57.954Z,14.55
2022-07-28T23:33:55.696Z,14.51
2022-07-28T23:36:16.929Z,14.50
2022-07-28T23:38:54.114Z,14.47
2022-07-28T23:41:21.806Z,14.45
2022-07-28T23:43:50.922Z,14.42
2022-07-28T23:46:18.740Z,14.39
2022-07-28T23:48:46.516Z,14.39
2022-07-28T23:51:14.954Z,14.38
2022-07-28T23:53:42.669Z,14.38
2022-07-28T23:56:10.985Z,14.34
2022-07-28T23:58:38.698Z,14.35
